sensor_id;sensor_type;location;lat;lon;timestamp;temperature;humidity
6164;DHT22;3114;48.362;10.994;2022-11-22T00:00:26;7.50;99.90
6164;DHT22;3114;48.362;10.994;2022-11-22T00:02:53;7.40;99.90
6164;DHT22;3114;48.362;10.994;2022-11-22T00:05:21;7.10;99.90
6164;DHT22;3114;48.362;10.994;2022-11-22T00:07:48;7.10;99.90
6164;DHT22;3114;48.362;10.994;2022-11-22T00:10:16;7.10;99.90
6164;DHT22;3114;48.362;10.994;2022-11-22T00:12:43;7.10;99.90
6164;DHT22;3114;48.362;10.994;2022-11-22T00:15:10;7.20;99.90
6164;DHT22;3114;48.362;10.994;2022-11-22T00:17:38;7.10;99.90
6164;DHT22;3114;48.362;10.994;2022-11-22T00:20:07;7.10;99.90
6164;DHT22;3114;48.362;10.994;2022-11-22T00:22:36;7.00;99.90
6164;DHT22;3114;48.362;10.994;2022-11-22T00:25:04;6.70;99.90
6164;DHT22;3114;48.362;10.994;2022-11-22T00:27:31;6.70;99.90
6164;DHT22;3114;48.362;10.994;2022-11-22T00:29:58;6.90;99.90
6164;DHT22;3114;48.362;10.994;2022-11-22T00:32:25;7.10;99.90
6164;DHT22;3114;48.362;10.994;2022-11-22T00:34:52;7.10;99.90
6164;DHT22;3114;48.362;10.994;2022-11-22T00:37:19;7.10;99.90
6164;DHT22;3114;48.362;10.994;2022-11-22T00:39:47;7.10;99.90
6164;DHT22;3114;48.362;10.994;2022-11-22T00:42:14;7.30;99.90
6164;DHT22;3114;48.362;10.994;2022-11-22T00:44:43;7.30;99.90
6164;DHT22;3114;48.362;10.994;2022-11-22T00:47:12;7.20;99.90
6164;DHT22;3114;48.362;10.994;2022-11-22T00:49:39;7.20;99.90
6164;DHT22;3114;48.362;10.994;2022-11-22T00:52:06;7.30;99.90
6164;DHT22;3114;48.362;10.994;2022-11-22T00:54:33;7.30;99.90
6164;DHT22;3114;48.362;10.994;2022-11-22T00:57:01;7.40;99.90
6164;DHT22;3114;48.362;10.994;2022-11-22T00:59:28;7.30;99.90
6164;DHT22;3114;48.362;10.994;2022-11-22T01:01:55;7.70;99.90
6164;DHT22;3114;48.362;10.994;2022-11-22T01:04:22;7.40;99.90
6164;DHT22;3114;48.362;10.994;2022-11-22T01:06:49;7.40;99.90
6164;DHT22;3114;48.362;10.994;2022-11-22T01:09:18;7.30;99.90
6164;DHT22;3114;48.362;10.994;2022-11-22T01:11:46;7.40;99.90
6164;DHT22;3114;48.362;10.994;2022-11-22T01:14:14;7.40;99.90
6164;DHT22;3114;48.362;10.994;2022-11-22T01:16:41;7.50;99.90
6164;DHT22;3114;48.362;10.994;2022-11-22T01:19:08;7.40;99.90
6164;DHT22;3114;48.362;10.994;2022-11-22T01:21:35;7.60;99.90
6164;DHT22;3114;48.362;10.994;2022-11-22T01:24:02;7.30;99.90
6164;DHT22;3114;48.362;10.994;2022-11-22T01:26:29;7.50;99.90
6164;DHT22;3114;48.362;10.994;2022-11-22T01:28:56;7.60;99.90
6164;DHT22;3114;48.362;10.994;2022-11-22T01:31:24;7.30;99.90
6164;DHT22;3114;48.362;10.994;2022-11-22T01:33:51;7.80;99.90
6164;DHT22;3114;48.362;10.994;2022-11-22T01:36:18;7.40;99.90
6164;DHT22;3114;48.362;10.994;2022-11-22T01:38:45;7.40;99.90
6164;DHT22;3114;48.362;10.994;2022-11-22T01:41:12;8.10;99.90
6164;DHT22;3114;48.362;10.994;2022-11-22T01:43:39;7.40;99.90
6164;DHT22;3114;48.362;10.994;2022-11-22T01:46:09;7.20;99.90
6164;DHT22;3114;48.362;10.994;2022-11-22T01:48:47;7.50;99.90
6164;DHT22;3114;48.362;10.994;2022-11-22T01:51:21;7.50;99.90
6164;DHT22;3114;48.362;10.994;2022-11-22T01:53:51;7.80;99.90
6164;DHT22;3114;48.362;10.994;2022-11-22T01:56:20;7.40;99.90
6164;DHT22;3114;48.362;10.994;2022-11-22T01:58:52;7.40;99.90
6164;DHT22;3114;48.362;10.994;2022-11-22T02:01:22;7.60;99.90
6164;DHT22;3114;48.362;10.994;2022-11-22T02:03:51;7.40;99.90
6164;DHT22;3114;48.362;10.994;2022-11-22T02:06:21;7.40;99.90
6164;DHT22;3114;48.362;10.994;2022-11-22T02:08:54;7.40;99.90
6164;DHT22;3114;48.362;10.994;2022-11-22T02:11:23;7.40;99.90
6164;DHT22;3114;48.362;10.994;2022-11-22T02:13:52;8.10;99.90
6164;DHT22;3114;48.362;10.994;2022-11-22T02:16:21;8.10;99.90
6164;DHT22;3114;48.362;10.994;2022-11-22T02:18:49;7.40;99.90
6164;DHT22;3114;48.362;10.994;2022-11-22T02:21:16;7.50;99.90
6164;DHT22;3114;48.362;10.994;2022-11-22T02:23:53;7.40;99.90
6164;DHT22;3114;48.362;10.994;2022-11-22T02:26:23;7.50;99.90
6164;DHT22;3114;48.362;10.994;2022-11-22T02:28:51;8.20;99.90
6164;DHT22;3114;48.362;10.994;2022-11-22T02:31:36;8.00;99.90
6164;DHT22;3114;48.362;10.994;2022-11-22T02:34:04;7.20;99.90
6164;DHT22;3114;48.362;10.994;2022-11-22T02:36:34;7.30;99.90
6164;DHT22;3114;48.362;10.994;2022-11-22T02:39:01;7.10;99.90
6164;DHT22;3114;48.362;10.994;2022-11-22T02:41:30;7.00;99.90
6164;DHT22;3114;48.362;10.994;2022-11-22T02:43:58;7.40;99.90
6164;DHT22;3114;48.362;10.994;2022-11-22T02:46:25;7.30;99.90
6164;DHT22;3114;48.362;10.994;2022-11-22T02:48:52;7.30;99.90
6164;DHT22;3114;48.362;10.994;2022-11-22T02:51:19;7.30;99.90
6164;DHT22;3114;48.362;10.994;2022-11-22T02:53:48;7.30;99.90
6164;DHT22;3114;48.362;10.994;2022-11-22T02:56:15;7.10;99.90
6164;DHT22;3114;48.362;10.994;2022-11-22T02:58:44;7.10;99.90
6164;DHT22;3114;48.362;10.994;2022-11-22T03:01:11;6.80;99.90
6164;DHT22;3114;48.362;10.994;2022-11-22T03:03:38;6.80;99.90
6164;DHT22;3114;48.362;10.994;2022-11-22T03:06:05;7.10;99.90
6164;DHT22;3114;48.362;10.994;2022-11-22T03:08:32;6.90;99.90
6164;DHT22;3114;48.362;10.994;2022-11-22T03:10:59;6.90;99.90
6164;DHT22;3114;48.362;10.994;2022-11-22T03:13:26;7.20;99.90
6164;DHT22;3114;48.362;10.994;2022-11-22T03:15:54;6.80;99.90
6164;DHT22;3114;48.362;10.994;2022-11-22T03:18:21;6.70;99.90
6164;DHT22;3114;48.362;10.994;2022-11-22T03:20:48;6.70;99.90
6164;DHT22;3114;48.362;10.994;2022-11-22T03:23:15;6.70;99.90
6164;DHT22;3114;48.362;10.994;2022-11-22T03:25:42;6.70;99.90
6164;DHT22;3114;48.362;10.994;2022-11-22T03:28:09;6.60;99.90
6164;DHT22;3114;48.362;10.994;2022-11-22T03:30:39;6.70;99.90
6164;DHT22;3114;48.362;10.994;2022-11-22T03:33:08;7.00;99.90
6164;DHT22;3114;48.362;10.994;2022-11-22T03:35:35;6.90;99.90
6164;DHT22;3114;48.362;10.994;2022-11-22T03:38:02;6.60;99.90
6164;DHT22;3114;48.362;10.994;2022-11-22T03:40:29;6.70;99.90
6164;DHT22;3114;48.362;10.994;2022-11-22T03:42:58;7.00;99.90
6164;DHT22;3114;48.362;10.994;2022-11-22T03:45:26;6.70;99.90
6164;DHT22;3114;48.362;10.994;2022-11-22T03:47:54;6.70;99.90
6164;DHT22;3114;48.362;10.994;2022-11-22T03:50:23;6.70;99.90
6164;DHT22;3114;48.362;10.994;2022-11-22T03:52:50;6.90;99.90
6164;DHT22;3114;48.362;10.994;2022-11-22T03:55:17;7.40;99.90
6164;DHT22;3114;48.362;10.994;2022-11-22T03:57:44;7.00;99.90
6164;DHT22;3114;48.362;10.994;2022-11-22T04:00:11;6.90;99.90
6164;DHT22;3114;48.362;10.994;2022-11-22T04:02:38;6.90;99.90
6164;DHT22;3114;48.362;10.994;2022-11-22T04:05:06;7.50;99.90
6164;DHT22;3114;48.362;10.994;2022-11-22T04:07:34;7.00;99.90
6164;DHT22;3114;48.362;10.994;2022-11-22T04:10:02;7.20;99.90
6164;DHT22;3114;48.362;10.994;2022-11-22T04:12:29;7.00;99.90
6164;DHT22;3114;48.362;10.994;2022-11-22T04:14:56;7.10;99.90
6164;DHT22;3114;48.362;10.994;2022-11-22T04:17:31;7.10;99.90
6164;DHT22;3114;48.362;10.994;2022-11-22T04:20:12;7.10;99.90
6164;DHT22;3114;48.362;10.994;2022-11-22T04:22:59;7.40;99.90
6164;DHT22;3114;48.362;10.994;2022-11-22T04:25:27;7.10;99.90
6164;DHT22;3114;48.362;10.994;2022-11-22T04:27:54;7.10;99.90
6164;DHT22;3114;48.362;10.994;2022-11-22T04:30:21;7.10;99.90
6164;DHT22;3114;48.362;10.994;2022-11-22T04:33:09;7.00;99.90
6164;DHT22;3114;48.362;10.994;2022-11-22T04:35:35;7.00;99.90
6164;DHT22;3114;48.362;10.994;2022-11-22T04:38:04;7.70;99.90
6164;DHT22;3114;48.362;10.994;2022-11-22T04:40:31;7.00;99.90
6164;DHT22;3114;48.362;10.994;2022-11-22T04:42:59;7.00;99.90
6164;DHT22;3114;48.362;10.994;2022-11-22T04:45:43;7.10;99.90
6164;DHT22;3114;48.362;10.994;2022-11-22T04:48:10;7.10;99.90
6164;DHT22;3114;48.362;10.994;2022-11-22T04:50:39;7.20;99.90
6164;DHT22;3114;48.362;10.994;2022-11-22T04:53:25;7.30;99.90
6164;DHT22;3114;48.362;10.994;2022-11-22T04:55:52;7.30;99.90
6164;DHT22;3114;48.362;10.994;2022-11-22T04:58:19;7.30;99.90
6164;DHT22;3114;48.362;10.994;2022-11-22T05:00:46;7.30;99.90
6164;DHT22;3114;48.362;10.994;2022-11-22T05:03:13;7.10;99.90
6164;DHT22;3114;48.362;10.994;2022-11-22T05:05:41;7.20;99.90
6164;DHT22;3114;48.362;10.994;2022-11-22T05:08:09;7.20;99.90
6164;DHT22;3114;48.362;10.994;2022-11-22T05:10:38;7.20;99.90
6164;DHT22;3114;48.362;10.994;2022-11-22T05:13:26;7.20;99.90
6164;DHT22;3114;48.362;10.994;2022-11-22T05:15:53;7.10;99.90
6164;DHT22;3114;48.362;10.994;2022-11-22T05:18:21;7.20;99.90
6164;DHT22;3114;48.362;10.994;2022-11-22T05:20:48;7.50;99.90
6164;DHT22;3114;48.362;10.994;2022-11-22T05:23:16;7.30;99.90
6164;DHT22;3114;48.362;10.994;2022-11-22T05:26:10;7.40;99.90
6164;DHT22;3114;48.362;10.994;2022-11-22T05:28:38;7.40;99.90
6164;DHT22;3114;48.362;10.994;2022-11-22T05:31:06;7.30;99.90
6164;DHT22;3114;48.362;10.994;2022-11-22T05:33:35;7.40;99.90
6164;DHT22;3114;48.362;10.994;2022-11-22T05:36:02;7.40;99.90
6164;DHT22;3114;48.362;10.994;2022-11-22T05:38:29;7.10;99.90
6164;DHT22;3114;48.362;10.994;2022-11-22T05:40:56;7.70;99.90
6164;DHT22;3114;48.362;10.994;2022-11-22T05:43:26;7.00;99.90
6164;DHT22;3114;48.362;10.994;2022-11-22T05:45:53;8.00;99.90
6164;DHT22;3114;48.362;10.994;2022-11-22T05:48:20;7.80;99.90
6164;DHT22;3114;48.362;10.994;2022-11-22T05:50:47;7.80;99.90
6164;DHT22;3114;48.362;10.994;2022-11-22T05:53:14;7.80;99.90
6164;DHT22;3114;48.362;10.994;2022-11-22T05:55:41;7.80;99.90
6164;DHT22;3114;48.362;10.994;2022-11-22T05:58:08;7.70;99.90
6164;DHT22;3114;48.362;10.994;2022-11-22T06:00:37;7.70;99.90
6164;DHT22;3114;48.362;10.994;2022-11-22T06:03:06;7.80;99.90
6164;DHT22;3114;48.362;10.994;2022-11-22T06:05:33;7.70;99.90
6164;DHT22;3114;48.362;10.994;2022-11-22T06:08:00;7.70;99.90
6164;DHT22;3114;48.362;10.994;2022-11-22T06:10:27;7.50;99.90
6164;DHT22;3114;48.362;10.994;2022-11-22T06:12:54;7.50;99.90
6164;DHT22;3114;48.362;10.994;2022-11-22T06:15:21;7.70;99.90
6164;DHT22;3114;48.362;10.994;2022-11-22T06:17:50;7.70;99.90
6164;DHT22;3114;48.362;10.994;2022-11-22T06:20:17;7.40;99.90
6164;DHT22;3114;48.362;10.994;2022-11-22T06:22:44;7.20;99.90
6164;DHT22;3114;48.362;10.994;2022-11-22T06:25:11;7.20;99.90
6164;DHT22;3114;48.362;10.994;2022-11-22T06:27:38;7.50;99.90
6164;DHT22;3114;48.362;10.994;2022-11-22T06:30:06;7.30;99.90
6164;DHT22;3114;48.362;10.994;2022-11-22T06:32:36;7.40;99.90
6164;DHT22;3114;48.362;10.994;2022-11-22T06:35:05;7.40;99.90
6164;DHT22;3114;48.362;10.994;2022-11-22T06:37:32;7.40;99.90
6164;DHT22;3114;48.362;10.994;2022-11-22T06:39:59;7.50;99.90
6164;DHT22;3114;48.362;10.994;2022-11-22T06:42:28;7.30;99.90
6164;DHT22;3114;48.362;10.994;2022-11-22T06:44:55;7.60;99.90
6164;DHT22;3114;48.362;10.994;2022-11-22T06:47:21;7.30;99.90
6164;DHT22;3114;48.362;10.994;2022-11-22T06:49:48;7.50;99.90
6164;DHT22;3114;48.362;10.994;2022-11-22T06:52:17;7.30;99.90
6164;DHT22;3114;48.362;10.994;2022-11-22T06:54:44;7.20;99.90
6164;DHT22;3114;48.362;10.994;2022-11-22T06:57:12;7.10;99.90
6164;DHT22;3114;48.362;10.994;2022-11-22T06:59:39;7.70;99.90
6164;DHT22;3114;48.362;10.994;2022-11-22T07:02:10;7.20;99.90
6164;DHT22;3114;48.362;10.994;2022-11-22T07:04:37;7.80;99.90
6164;DHT22;3114;48.362;10.994;2022-11-22T07:07:04;7.10;99.90
6164;DHT22;3114;48.362;10.994;2022-11-22T07:09:32;7.60;99.90
6164;DHT22;3114;48.362;10.994;2022-11-22T07:12:00;7.90;99.90
6164;DHT22;3114;48.362;10.994;2022-11-22T07:14:29;7.00;99.90
6164;DHT22;3114;48.362;10.994;2022-11-22T07:16:56;7.10;99.90
6164;DHT22;3114;48.362;10.994;2022-11-22T07:19:27;7.20;99.90
6164;DHT22;3114;48.362;10.994;2022-11-22T07:21:54;6.50;99.90
6164;DHT22;3114;48.362;10.994;2022-11-22T07:24:20;7.30;99.90
6164;DHT22;3114;48.362;10.994;2022-11-22T07:26:49;7.50;99.90
6164;DHT22;3114;48.362;10.994;2022-11-22T07:29:16;7.70;99.90
6164;DHT22;3114;48.362;10.994;2022-11-22T07:31:44;7.30;99.90
6164;DHT22;3114;48.362;10.994;2022-11-22T07:34:12;7.80;99.90
6164;DHT22;3114;48.362;10.994;2022-11-22T07:36:38;7.20;99.90
6164;DHT22;3114;48.362;10.994;2022-11-22T07:39:06;7.40;99.90
6164;DHT22;3114;48.362;10.994;2022-11-22T07:41:33;7.40;99.90
6164;DHT22;3114;48.362;10.994;2022-11-22T07:44:01;7.20;99.90
6164;DHT22;3114;48.362;10.994;2022-11-22T07:46:30;8.10;99.90
6164;DHT22;3114;48.362;10.994;2022-11-22T07:48:58;7.30;99.90
6164;DHT22;3114;48.362;10.994;2022-11-22T07:51:26;7.20;99.90
6164;DHT22;3114;48.362;10.994;2022-11-22T07:53:53;7.50;99.90
6164;DHT22;3114;48.362;10.994;2022-11-22T07:56:20;7.20;99.90
6164;DHT22;3114;48.362;10.994;2022-11-22T07:58:50;7.10;99.90
6164;DHT22;3114;48.362;10.994;2022-11-22T08:01:18;7.80;99.90
6164;DHT22;3114;48.362;10.994;2022-11-22T08:03:46;7.70;99.90
6164;DHT22;3114;48.362;10.994;2022-11-22T08:06:13;7.30;99.90
6164;DHT22;3114;48.362;10.994;2022-11-22T08:08:41;7.40;99.90
6164;DHT22;3114;48.362;10.994;2022-11-22T08:11:09;7.40;99.90
6164;DHT22;3114;48.362;10.994;2022-11-22T08:13:36;7.70;99.90
6164;DHT22;3114;48.362;10.994;2022-11-22T08:16:05;7.30;99.90
6164;DHT22;3114;48.362;10.994;2022-11-22T08:18:35;7.40;99.90
6164;DHT22;3114;48.362;10.994;2022-11-22T08:21:04;7.50;99.90
6164;DHT22;3114;48.362;10.994;2022-11-22T08:23:32;7.50;99.90
6164;DHT22;3114;48.362;10.994;2022-11-22T08:25:59;7.70;99.90
6164;DHT22;3114;48.362;10.994;2022-11-22T08:28:26;7.80;99.90
6164;DHT22;3114;48.362;10.994;2022-11-22T08:30:58;7.70;99.90
6164;DHT22;3114;48.362;10.994;2022-11-22T08:33:26;7.80;99.90
6164;DHT22;3114;48.362;10.994;2022-11-22T08:35:54;8.40;99.90
6164;DHT22;3114;48.362;10.994;2022-11-22T08:38:21;8.00;99.90
6164;DHT22;3114;48.362;10.994;2022-11-22T08:40:48;7.90;99.90
6164;DHT22;3114;48.362;10.994;2022-11-22T08:43:16;7.70;99.90
6164;DHT22;3114;48.362;10.994;2022-11-22T08:45:43;8.20;99.90
6164;DHT22;3114;48.362;10.994;2022-11-22T08:48:10;8.00;99.90
6164;DHT22;3114;48.362;10.994;2022-11-22T08:50:37;8.10;99.90
6164;DHT22;3114;48.362;10.994;2022-11-22T08:53:05;8.30;99.90
6164;DHT22;3114;48.362;10.994;2022-11-22T08:55:32;8.20;99.90
6164;DHT22;3114;48.362;10.994;2022-11-22T08:57:59;8.40;99.90
6164;DHT22;3114;48.362;10.994;2022-11-22T09:00:26;8.20;99.90
6164;DHT22;3114;48.362;10.994;2022-11-22T09:03:01;8.20;99.90
6164;DHT22;3114;48.362;10.994;2022-11-22T09:05:30;8.00;99.90
6164;DHT22;3114;48.362;10.994;2022-11-22T09:07:57;8.70;99.90
6164;DHT22;3114;48.362;10.994;2022-11-22T09:10:25;8.30;99.90
6164;DHT22;3114;48.362;10.994;2022-11-22T09:12:52;8.30;99.90
6164;DHT22;3114;48.362;10.994;2022-11-22T09:15:19;8.10;99.90
6164;DHT22;3114;48.362;10.994;2022-11-22T09:17:46;8.40;99.90
6164;DHT22;3114;48.362;10.994;2022-11-22T09:20:13;8.70;99.90
6164;DHT22;3114;48.362;10.994;2022-11-22T09:22:41;8.20;99.90
6164;DHT22;3114;48.362;10.994;2022-11-22T09:25:08;8.10;99.90
6164;DHT22;3114;48.362;10.994;2022-11-22T09:27:37;8.20;99.90
6164;DHT22;3114;48.362;10.994;2022-11-22T09:30:05;8.20;99.90
6164;DHT22;3114;48.362;10.994;2022-11-22T09:32:32;8.20;99.90
6164;DHT22;3114;48.362;10.994;2022-11-22T09:34:59;8.20;99.90
6164;DHT22;3114;48.362;10.994;2022-11-22T09:37:26;8.60;99.90
6164;DHT22;3114;48.362;10.994;2022-11-22T09:39:53;8.50;99.90
6164;DHT22;3114;48.362;10.994;2022-11-22T09:42:45;8.50;99.90
6164;DHT22;3114;48.362;10.994;2022-11-22T09:45:40;8.20;99.90
6164;DHT22;3114;48.362;10.994;2022-11-22T09:48:20;8.40;99.90
6164;DHT22;3114;48.362;10.994;2022-11-22T09:50:55;8.50;99.90
6164;DHT22;3114;48.362;10.994;2022-11-22T09:53:28;8.50;99.90
6164;DHT22;3114;48.362;10.994;2022-11-22T09:55:58;8.80;99.90
6164;DHT22;3114;48.362;10.994;2022-11-22T09:58:30;8.50;99.90
6164;DHT22;3114;48.362;10.994;2022-11-22T10:01:04;8.40;99.90
6164;DHT22;3114;48.362;10.994;2022-11-22T10:03:40;8.40;99.90
6164;DHT22;3114;48.362;10.994;2022-11-22T10:06:14;8.60;99.90
6164;DHT22;3114;48.362;10.994;2022-11-22T10:08:47;8.50;99.90
6164;DHT22;3114;48.362;10.994;2022-11-22T10:11:24;8.40;99.90
6164;DHT22;3114;48.362;10.994;2022-11-22T10:14:02;8.40;99.90
6164;DHT22;3114;48.362;10.994;2022-11-22T10:16:32;8.50;99.90
6164;DHT22;3114;48.362;10.994;2022-11-22T10:19:08;8.70;99.90
6164;DHT22;3114;48.362;10.994;2022-11-22T10:21:36;8.50;99.90
6164;DHT22;3114;48.362;10.994;2022-11-22T10:24:04;8.40;99.90
6164;DHT22;3114;48.362;10.994;2022-11-22T10:26:32;8.30;99.90
6164;DHT22;3114;48.362;10.994;2022-11-22T10:29:09;8.30;99.90
6164;DHT22;3114;48.362;10.994;2022-11-22T10:31:44;7.90;99.90
6164;DHT22;3114;48.362;10.994;2022-11-22T10:34:22;8.30;99.90
6164;DHT22;3114;48.362;10.994;2022-11-22T10:36:55;8.20;99.90
6164;DHT22;3114;48.362;10.994;2022-11-22T10:39:44;8.60;99.90
6164;DHT22;3114;48.362;10.994;2022-11-22T10:42:46;8.20;99.90
6164;DHT22;3114;48.362;10.994;2022-11-22T10:45:22;8.00;99.90
6164;DHT22;3114;48.362;10.994;2022-11-22T10:47:56;8.20;99.90
6164;DHT22;3114;48.362;10.994;2022-11-22T10:50:29;8.20;99.90
6164;DHT22;3114;48.362;10.994;2022-11-22T10:53:02;9.10;99.90
6164;DHT22;3114;48.362;10.994;2022-11-22T10:55:41;8.20;99.90
6164;DHT22;3114;48.362;10.994;2022-11-22T10:58:19;8.20;99.90
6164;DHT22;3114;48.362;10.994;2022-11-22T11:01:00;8.40;99.90
6164;DHT22;3114;48.362;10.994;2022-11-22T11:03:33;8.20;99.90
6164;DHT22;3114;48.362;10.994;2022-11-22T11:06:06;8.20;99.90
6164;DHT22;3114;48.362;10.994;2022-11-22T11:08:39;8.20;99.90
6164;DHT22;3114;48.362;10.994;2022-11-22T11:11:07;8.20;99.90
6164;DHT22;3114;48.362;10.994;2022-11-22T11:13:37;8.60;99.90
6164;DHT22;3114;48.362;10.994;2022-11-22T11:16:11;8.40;99.90
6164;DHT22;3114;48.362;10.994;2022-11-22T11:18:43;8.50;99.90
6164;DHT22;3114;48.362;10.994;2022-11-22T11:21:13;8.50;99.90
6164;DHT22;3114;48.362;10.994;2022-11-22T11:23:40;8.30;99.90
6164;DHT22;3114;48.362;10.994;2022-11-22T11:26:19;8.40;99.90
6164;DHT22;3114;48.362;10.994;2022-11-22T11:28:47;8.40;99.90
6164;DHT22;3114;48.362;10.994;2022-11-22T11:31:16;7.80;99.90
6164;DHT22;3114;48.362;10.994;2022-11-22T11:33:46;8.40;99.90
6164;DHT22;3114;48.362;10.994;2022-11-22T11:36:15;9.10;99.90
6164;DHT22;3114;48.362;10.994;2022-11-22T11:38:51;9.30;99.90
6164;DHT22;3114;48.362;10.994;2022-11-22T11:41:29;8.60;99.90
6164;DHT22;3114;48.362;10.994;2022-11-22T11:43:58;9.10;99.90
6164;DHT22;3114;48.362;10.994;2022-11-22T11:46:27;8.80;99.90
6164;DHT22;3114;48.362;10.994;2022-11-22T11:48:55;8.50;99.90
6164;DHT22;3114;48.362;10.994;2022-11-22T11:51:36;9.10;99.90
6164;DHT22;3114;48.362;10.994;2022-11-22T11:54:08;8.20;99.90
6164;DHT22;3114;48.362;10.994;2022-11-22T11:56:44;8.30;99.90
6164;DHT22;3114;48.362;10.994;2022-11-22T11:59:14;8.20;99.90
6164;DHT22;3114;48.362;10.994;2022-11-22T12:02:02;8.20;99.90
6164;DHT22;3114;48.362;10.994;2022-11-22T12:04:31;8.60;99.90
6164;DHT22;3114;48.362;10.994;2022-11-22T12:07:02;8.30;99.90
6164;DHT22;3114;48.362;10.994;2022-11-22T12:09:33;8.70;99.90
6164;DHT22;3114;48.362;10.994;2022-11-22T12:12:18;8.50;99.90
6164;DHT22;3114;48.362;10.994;2022-11-22T12:14:53;8.50;99.90
6164;DHT22;3114;48.362;10.994;2022-11-22T12:17:30;8.50;99.90
6164;DHT22;3114;48.362;10.994;2022-11-22T12:20:03;8.80;99.90
6164;DHT22;3114;48.362;10.994;2022-11-22T12:22:36;8.60;99.90
6164;DHT22;3114;48.362;10.994;2022-11-22T12:25:14;8.80;99.90
6164;DHT22;3114;48.362;10.994;2022-11-22T12:27:44;9.10;99.90
6164;DHT22;3114;48.362;10.994;2022-11-22T12:30:11;8.70;99.90
6164;DHT22;3114;48.362;10.994;2022-11-22T12:32:45;8.80;99.90
6164;DHT22;3114;48.362;10.994;2022-11-22T12:35:15;8.80;99.90
6164;DHT22;3114;48.362;10.994;2022-11-22T12:37:48;8.70;99.90
6164;DHT22;3114;48.362;10.994;2022-11-22T12:40:20;8.90;99.90
6164;DHT22;3114;48.362;10.994;2022-11-22T12:42:54;8.60;99.90
6164;DHT22;3114;48.362;10.994;2022-11-22T12:45:27;8.40;99.90
6164;DHT22;3114;48.362;10.994;2022-11-22T12:48:00;8.50;99.90
6164;DHT22;3114;48.362;10.994;2022-11-22T12:50:35;8.50;99.90
6164;DHT22;3114;48.362;10.994;2022-11-22T12:53:07;8.40;99.90
6164;DHT22;3114;48.362;10.994;2022-11-22T12:55:41;8.20;99.90
6164;DHT22;3114;48.362;10.994;2022-11-22T12:58:17;8.50;99.90
6164;DHT22;3114;48.362;10.994;2022-11-22T13:00:53;8.10;99.90
6164;DHT22;3114;48.362;10.994;2022-11-22T13:03:29;8.20;99.90
6164;DHT22;3114;48.362;10.994;2022-11-22T13:06:00;8.40;99.90
6164;DHT22;3114;48.362;10.994;2022-11-22T13:08:37;8.00;99.90
6164;DHT22;3114;48.362;10.994;2022-11-22T13:11:12;8.20;99.90
6164;DHT22;3114;48.362;10.994;2022-11-22T13:13:43;8.20;99.90
6164;DHT22;3114;48.362;10.994;2022-11-22T13:16:13;8.90;99.90
6164;DHT22;3114;48.362;10.994;2022-11-22T13:18:45;8.30;99.90
6164;DHT22;3114;48.362;10.994;2022-11-22T13:21:22;8.30;99.90
6164;DHT22;3114;48.362;10.994;2022-11-22T13:24:11;8.60;99.90
6164;DHT22;3114;48.362;10.994;2022-11-22T13:26:46;8.40;99.90
6164;DHT22;3114;48.362;10.994;2022-11-22T13:29:21;8.40;99.90
6164;DHT22;3114;48.362;10.994;2022-11-22T13:32:06;8.50;99.90
6164;DHT22;3114;48.362;10.994;2022-11-22T13:34:37;9.20;99.90
6164;DHT22;3114;48.362;10.994;2022-11-22T13:37:09;8.50;99.90
6164;DHT22;3114;48.362;10.994;2022-11-22T13:39:41;8.30;99.90
6164;DHT22;3114;48.362;10.994;2022-11-22T13:42:13;8.20;99.90
6164;DHT22;3114;48.362;10.994;2022-11-22T13:45:05;8.60;99.90
6164;DHT22;3114;48.362;10.994;2022-11-22T13:47:34;8.50;99.90
6164;DHT22;3114;48.362;10.994;2022-11-22T13:53:25;8.10;99.90
6164;DHT22;3114;48.362;10.994;2022-11-22T13:55:54;8.40;99.90
6164;DHT22;3114;48.362;10.994;2022-11-22T13:58:52;8.10;99.90
6164;DHT22;3114;48.362;10.994;2022-11-22T14:01:55;8.20;99.90
6164;DHT22;3114;48.362;10.994;2022-11-22T14:04:44;9.00;99.90
6164;DHT22;3114;48.362;10.994;2022-11-22T14:07:35;8.50;99.90
6164;DHT22;3114;48.362;10.994;2022-11-22T14:10:27;8.20;99.90
6164;DHT22;3114;48.362;10.994;2022-11-22T14:13:23;8.50;99.90
6164;DHT22;3114;48.362;10.994;2022-11-22T14:16:16;8.40;99.90
6164;DHT22;3114;48.362;10.994;2022-11-22T14:18:55;8.60;99.90
6164;DHT22;3114;48.362;10.994;2022-11-22T14:24:51;8.90;99.90
6164;DHT22;3114;48.362;10.994;2022-11-22T14:37:46;8.10;99.90
6164;DHT22;3114;48.362;10.994;2022-11-22T14:40:30;8.10;99.90
6164;DHT22;3114;48.362;10.994;2022-11-22T14:43:03;8.10;99.90
6164;DHT22;3114;48.362;10.994;2022-11-22T14:45:47;8.10;99.90
6164;DHT22;3114;48.362;10.994;2022-11-22T14:48:45;7.90;99.90
6164;DHT22;3114;48.362;10.994;2022-11-22T14:51:24;8.00;99.90
6164;DHT22;3114;48.362;10.994;2022-11-22T14:53:55;7.90;99.90
6164;DHT22;3114;48.362;10.994;2022-11-22T14:56:26;6.80;99.90
6164;DHT22;3114;48.362;10.994;2022-11-22T14:59:05;7.50;99.90
6164;DHT22;3114;48.362;10.994;2022-11-22T15:01:52;8.20;99.90
6164;DHT22;3114;48.362;10.994;2022-11-22T15:04:38;7.60;99.90
6164;DHT22;3114;48.362;10.994;2022-11-22T15:07:23;7.70;99.90
6164;DHT22;3114;48.362;10.994;2022-11-22T15:10:21;8.60;99.90
6164;DHT22;3114;48.362;10.994;2022-11-22T15:13:12;7.80;99.90
6164;DHT22;3114;48.362;10.994;2022-11-22T15:15:44;7.70;99.90
6164;DHT22;3114;48.362;10.994;2022-11-22T15:18:16;6.90;99.90
6164;DHT22;3114;48.362;10.994;2022-11-22T15:20:44;7.70;99.90
6164;DHT22;3114;48.362;10.994;2022-11-22T15:23:21;7.70;99.90
6164;DHT22;3114;48.362;10.994;2022-11-22T15:25:59;8.60;99.90
6164;DHT22;3114;48.362;10.994;2022-11-22T15:28:27;8.20;99.90
6164;DHT22;3114;48.362;10.994;2022-11-22T15:30:59;8.20;99.90
6164;DHT22;3114;48.362;10.994;2022-11-22T15:33:32;7.80;99.90
6164;DHT22;3114;48.362;10.994;2022-11-22T15:36:12;7.80;99.90
6164;DHT22;3114;48.362;10.994;2022-11-22T15:38:42;7.80;99.90
6164;DHT22;3114;48.362;10.994;2022-11-22T15:41:15;7.90;99.90
6164;DHT22;3114;48.362;10.994;2022-11-22T15:43:45;7.80;99.90
6164;DHT22;3114;48.362;10.994;2022-11-22T15:46:13;8.10;99.90
6164;DHT22;3114;48.362;10.994;2022-11-22T15:48:47;8.20;99.90
6164;DHT22;3114;48.362;10.994;2022-11-22T15:51:23;8.20;99.90
6164;DHT22;3114;48.362;10.994;2022-11-22T15:54:06;8.40;99.90
6164;DHT22;3114;48.362;10.994;2022-11-22T15:56:53;8.50;99.90
6164;DHT22;3114;48.362;10.994;2022-11-22T15:59:26;9.40;99.90
6164;DHT22;3114;48.362;10.994;2022-11-22T16:01:55;8.80;99.90
6164;DHT22;3114;48.362;10.994;2022-11-22T16:04:27;8.90;99.90
6164;DHT22;3114;48.362;10.994;2022-11-22T16:06:59;8.90;99.90
6164;DHT22;3114;48.362;10.994;2022-11-22T16:09:32;9.00;99.90
6164;DHT22;3114;48.362;10.994;2022-11-22T16:12:03;8.90;99.90
6164;DHT22;3114;48.362;10.994;2022-11-22T16:14:45;8.90;99.90
6164;DHT22;3114;48.362;10.994;2022-11-22T16:17:30;9.80;99.90
6164;DHT22;3114;48.362;10.994;2022-11-22T16:20:30;8.70;99.90
6164;DHT22;3114;48.362;10.994;2022-11-22T16:23:14;8.60;99.90
6164;DHT22;3114;48.362;10.994;2022-11-22T16:25:43;9.10;99.90
6164;DHT22;3114;48.362;10.994;2022-11-22T16:28:41;8.50;99.90
6164;DHT22;3114;48.362;10.994;2022-11-22T16:31:16;8.50;99.90
6164;DHT22;3114;48.362;10.994;2022-11-22T16:33:44;8.20;99.90
6164;DHT22;3114;48.362;10.994;2022-11-22T16:36:15;8.30;99.90
6164;DHT22;3114;48.362;10.994;2022-11-22T16:38:43;8.40;99.90
6164;DHT22;3114;48.362;10.994;2022-11-22T16:41:15;8.50;99.90
6164;DHT22;3114;48.362;10.994;2022-11-22T16:43:46;8.60;99.90
6164;DHT22;3114;48.362;10.994;2022-11-22T16:46:15;8.80;99.90